createdAt,value
2019-06-10T00:00:41.775Z,101498.03
2019-06-10T00:03:11.680Z,101493.94
2019-06-10T00:05:41.482Z,101493.12
2019-06-10T00:08:11.798Z,101489.32
2019-06-10T00:10:42.064Z,101484.69
2019-06-10T00:13:11.769Z,101483.58
2019-06-10T00:18:32.825Z,101480.31
2019-06-10T00:20:41.234Z,101480.57
2019-06-10T00:23:12.338Z,101481.66
2019-06-10T00:25:41.424Z,101472.66
2019-06-10T00:28:12.050Z,101459.31
2019-06-10T00:30:41.622Z,101455.77
2019-06-10T00:33:12.703Z,101451.94
2019-06-10T00:35:41.562Z,101447.03
2019-06-10T00:38:14.065Z,101450.02
2019-06-10T00:40:41.873Z,101437.21
2019-06-10T00:43:13.059Z,101432.58
2019-06-10T00:45:41.544Z,101433.66
2019-06-10T00:48:21.074Z,101421.39
2019-06-10T00:50:41.802Z,101358.91
2019-06-10T00:53:14.407Z,101418.36
2019-06-10T00:55:42.647Z,101410.19
2019-06-10T00:58:14.420Z,101407.45
2019-06-10T01:00:43.185Z,101403.66
2019-06-10T01:03:15.105Z,101397.10
2019-06-10T01:05:42.523Z,101396.03
2019-06-10T01:08:13.967Z,101393.02
2019-06-10T01:10:43.836Z,101385.39
2019-06-10T01:13:15.113Z,101380.74
2019-06-10T01:15:43.620Z,101379.66
2019-06-10T01:20:42.855Z,101370.39
2019-06-10T01:23:13.499Z,101370.11
2019-06-10T01:25:42.681Z,101368.46
2019-06-10T01:28:14.561Z,101368.47
2019-06-10T01:30:42.197Z,101363.02
2019-06-10T01:33:12.852Z,101366.81
2019-06-10T01:35:41.828Z,101358.11
2019-06-10T01:38:13.447Z,101355.39
2019-06-10T01:40:42.150Z,101351.84
2019-06-10T01:43:13.920Z,101351.56
2019-06-10T01:45:42.352Z,101340.67
2019-06-10T01:48:12.090Z,101344.75
2019-06-10T01:50:41.973Z,101334.94
2019-06-10T01:53:13.747Z,101330.83
2019-06-10T01:55:42.039Z,101327.56
2019-06-10T01:58:14.399Z,101331.91
2019-06-10T02:00:42.958Z,101328.39
2019-06-10T02:03:16.273Z,101259.17
2019-06-10T02:05:42.879Z,101317.24
2019-06-10T02:08:14.554Z,101308.25
2019-06-10T02:10:42.275Z,101310.15
2019-06-10T02:13:14.788Z,101313.95
2019-06-10T02:15:43.112Z,101303.31
2019-06-10T02:18:13.562Z,101307.41
2019-06-10T02:20:42.395Z,101299.48
2019-06-10T02:23:13.937Z,101299.48
2019-06-10T02:25:41.659Z,101292.66
2019-06-10T02:28:13.111Z,101298.92
2019-06-10T02:30:50.216Z,101291.29
2019-06-10T02:33:14.830Z,101283.38
2019-06-10T02:35:47.928Z,101280.12
2019-06-10T02:38:19.336Z,101277.39
2019-06-10T02:40:43.563Z,101282.55
2019-06-10T02:43:17.844Z,101280.36
2019-06-10T02:45:44.926Z,101277.03
2019-06-10T02:48:17.709Z,101266.94
2019-06-10T02:50:54.159Z,101264.22
2019-06-10T02:53:30.269Z,101272.09
2019-06-10T02:55:54.198Z,101264.75
2019-06-10T02:58:30.449Z,101265.81
2019-06-10T03:00:54.549Z,101260.08
2019-06-10T03:03:35.904Z,101255.17
2019-06-10T03:05:54.411Z,101259.79
2019-06-10T03:08:28.661Z,101255.99
2019-06-10T03:10:54.806Z,101249.72
2019-06-10T03:13:25.601Z,101251.31
2019-06-10T03:16:08.126Z,101248.31
2019-06-10T03:18:36.914Z,101244.53
2019-06-10T03:21:05.758Z,101245.63
2019-06-10T03:23:34.536Z,101236.08
2019-06-10T03:26:04.036Z,101230.39
2019-06-10T03:28:33.388Z,101226.56
2019-06-10T03:31:05.670Z,101233.41
2019-06-10T03:33:41.046Z,101227.40
2019-06-10T03:36:03.535Z,101223.89
2019-06-10T03:38:32.782Z,101227.40
2019-06-10T03:41:03.202Z,101214.62
2019-06-10T03:43:33.064Z,101208.37
2019-06-10T03:46:03.231Z,101220.60
2019-06-10T03:48:33.053Z,101219.77
2019-06-10T03:51:03.249Z,101220.58
2019-06-10T03:53:33.734Z,101220.02
2019-06-10T03:56:02.845Z,101215.97
2019-06-10T03:58:32.816Z,101224.13
2019-06-10T04:01:03.077Z,101219.52
2019-06-10T04:03:33.795Z,101219.54
2019-06-10T04:06:02.930Z,101209.72
2019-06-10T04:08:32.977Z,101215.16
2019-06-10T04:11:03.000Z,101206.76
2019-06-10T04:13:33.860Z,101216.28
2019-06-10T04:16:02.770Z,101211.38
2019-06-10T04:18:32.744Z,101206.80
2019-06-10T04:21:02.408Z,101212.53
2019-06-10T04:23:33.482Z,101211.22
2019-06-10T04:26:02.449Z,101212.09
2019-06-10T04:28:33.765Z,101206.39
2019-06-10T04:31:02.682Z,101209.67
2019-06-10T04:33:32.879Z,101211.02
2019-06-10T04:36:02.835Z,101211.02
2019-06-10T04:38:32.690Z,101200.88
2019-06-10T04:41:03.316Z,101208.55
2019-06-10T04:43:32.817Z,101208.54
2019-06-10T04:46:02.293Z,101210.73
2019-06-10T04:48:32.632Z,101204.95
2019-06-10T04:51:02.880Z,101198.98
2019-06-10T04:53:33.037Z,101199.81
2019-06-10T04:56:03.064Z,101195.72
2019-06-10T04:58:33.529Z,101202.54
2019-06-10T05:01:03.360Z,101198.75
2019-06-10T05:03:33.080Z,101197.91
2019-06-10T05:06:03.319Z,101192.28
2019-06-10T05:08:33.657Z,101191.12
2019-06-10T05:11:03.895Z,101192.11
2019-06-10T05:13:33.788Z,101192.27
2019-06-10T05:16:03.833Z,101185.44
2019-06-10T05:18:33.447Z,101185.44
2019-06-10T05:21:03.047Z,101183.84
2019-06-10T05:23:32.843Z,101181.52
2019-06-10T05:26:02.986Z,101185.58
2019-06-10T05:28:34.271Z,101180.74
2019-06-10T05:31:03.117Z,101170.94
2019-06-10T05:33:33.403Z,101168.50
2019-06-10T05:36:02.888Z,101167.94
2019-06-10T05:38:35.091Z,101171.22
2019-06-10T05:41:03.168Z,101170.29
2019-06-10T05:43:34.266Z,101176.45
2019-06-10T05:46:03.284Z,101175.63
2019-06-10T05:48:33.573Z,101171.83
2019-06-10T05:51:06.636Z,101174.77
2019-06-10T05:53:35.544Z,101167.08
2019-06-10T05:56:06.258Z,101168.77
2019-06-10T05:58:35.992Z,101164.48
2019-06-10T06:01:05.585Z,101156.45
2019-06-10T06:03:36.939Z,101156.45
2019-06-10T06:06:05.819Z,101152.10
2019-06-10T06:08:35.477Z,101156.63
2019-06-10T06:11:05.633Z,101155.41
2019-06-10T06:13:39.374Z,101161.58
2019-06-10T06:16:12.367Z,101144.73
2019-06-10T06:18:42.486Z,101142.08
2019-06-10T06:21:25.655Z,101140.64
2019-06-10T06:23:43.836Z,101116.28
2019-06-10T06:26:16.255Z,101116.28
2019-06-10T06:28:43.515Z,101134.14
2019-06-10T06:31:12.931Z,101140.45
2019-06-10T06:33:43.480Z,101138.08
2019-06-10T06:36:12.832Z,101144.09
2019-06-10T06:38:43.841Z,101149.67
2019-06-10T06:41:13.671Z,101144.62
2019-06-10T06:43:45.414Z,101140.06
2019-06-10T06:46:13.644Z,101136.05
2019-06-10T06:48:44.035Z,101134.93
2019-06-10T06:51:15.848Z,101126.80
2019-06-10T06:53:51.750Z,101124.98
2019-06-10T06:56:16.333Z,101126.50
2019-06-10T06:58:45.955Z,101136.98
2019-06-10T07:01:15.058Z,101131.22
2019-06-10T07:03:45.107Z,101129.66
2019-06-10T07:06:16.163Z,101121.86
2019-06-10T07:09:00.391Z,101122.97
2019-06-10T07:11:19.116Z,101134.78
2019-06-10T07:13:48.262Z,101121.48
2019-06-10T07:16:17.691Z,101122.09
2019-06-10T07:18:50.268Z,101113.88
2019-06-10T07:21:17.582Z,101110.33
2019-06-10T07:23:47.134Z,101106.84
2019-06-10T07:26:16.513Z,101111.77
2019-06-10T07:28:47.495Z,101116.91
2019-06-10T07:31:23.877Z,101111.64
2019-06-10T07:33:47.460Z,101112.88
2019-06-10T07:36:16.750Z,101111.72
2019-06-10T07:38:49.066Z,101127.00
2019-06-10T07:41:16.723Z,101118.77
2019-06-10T07:43:55.107Z,101113.08
2019-06-10T07:46:33.537Z,101108.26
2019-06-10T07:49:03.440Z,101104.31
2019-06-10T07:51:34.203Z,101102.28
2019-06-10T07:54:03.945Z,101104.52
2019-06-10T07:56:38.890Z,101099.37
2019-06-10T07:59:05.395Z,101095.70
2019-06-10T08:01:35.096Z,101050.66
2019-06-10T08:04:05.588Z,101086.77
2019-06-10T08:06:35.159Z,100924.02
2019-06-10T08:09:06.981Z,101075.66
2019-06-10T08:11:37.094Z,101081.88
2019-06-10T08:14:06.245Z,101076.78
2019-06-10T08:16:35.694Z,101073.09
2019-06-10T08:19:33.796Z,101071.34
2019-06-10T08:21:37.137Z,101071.34
2019-06-10T08:24:06.428Z,101069.50
2019-06-10T08:26:35.469Z,101067.75
2019-06-10T08:29:05.500Z,101064.64
2019-06-10T08:31:34.282Z,101026.36
2019-06-10T08:34:03.292Z,101067.40
2019-06-10T08:36:33.299Z,101065.36
2019-06-10T08:39:03.241Z,101055.72
2019-06-10T08:41:32.396Z,101062.45
2019-06-10T08:44:02.251Z,101066.78
2019-06-10T08:46:32.962Z,101059.11
2019-06-10T08:49:03.291Z,101069.39
2019-06-10T08:51:32.618Z,101063.02
2019-06-10T08:54:02.371Z,101054.59
2019-06-10T08:56:32.787Z,101053.50
2019-06-10T08:59:03.237Z,101051.75
2019-06-10T09:01:33.406Z,101043.27
2019-06-10T09:04:03.255Z,101036.55
2019-06-10T09:06:32.905Z,101036.55
2019-06-10T09:09:03.174Z,101041.41
2019-06-10T09:11:32.855Z,101026.37
2019-06-10T09:14:02.538Z,101027.20
2019-06-10T09:16:32.427Z,101027.99
2019-06-10T09:19:02.377Z,101027.81
2019-06-10T09:21:33.082Z,101015.08
2019-06-10T09:24:03.935Z,101018.22
2019-06-10T09:26:33.668Z,101025.61
2019-06-10T09:29:03.067Z,101024.38
2019-06-10T09:31:33.187Z,101011.61
2019-06-10T09:34:03.940Z,101016.26
2019-06-10T09:36:33.027Z,101023.13
2019-06-10T09:39:04.101Z,101021.85
2019-06-10T09:41:40.147Z,101018.94
2019-06-10T09:44:03.571Z,101021.80
2019-06-10T09:46:34.713Z,101015.86
2019-06-10T09:49:05.476Z,101013.69
2019-06-10T09:51:34.959Z,101011.39
2019-06-10T09:54:06.565Z,101021.61
2019-06-10T09:56:34.540Z,101008.64
2019-06-10T09:59:04.077Z,101012.08
2019-06-10T10:01:33.112Z,101010.17
2019-06-10T10:04:01.989Z,101011.57
2019-06-10T10:06:32.694Z,101009.97
2019-06-10T10:09:03.449Z,101014.74
2019-06-10T10:11:34.524Z,101013.05
2019-06-10T10:14:06.228Z,100992.37
2019-06-10T10:16:38.691Z,100995.99
2019-06-10T10:19:12.872Z,100993.48
2019-06-10T10:21:42.313Z,100991.34
2019-06-10T10:24:15.060Z,100989.94
2019-06-10T10:26:48.554Z,100991.16
2019-06-10T10:29:17.133Z,100984.61
2019-06-10T10:31:50.744Z,100980.81
2019-06-10T10:34:19.854Z,100976.59
2019-06-10T10:36:54.957Z,100967.66
2019-06-10T10:39:24.663Z,100963.42
2019-06-10T10:41:57.048Z,100959.13
2019-06-10T10:44:26.863Z,100962.07
2019-06-10T10:46:57.077Z,100965.41
2019-06-10T10:49:27.181Z,100967.77
2019-06-10T10:51:57.505Z,100966.72
2019-06-10T10:54:36.089Z,100965.57
2019-06-10T10:57:02.648Z,100963.02
2019-06-10T10:59:33.325Z,100966.80
2019-06-10T11:02:03.456Z,100947.65
2019-06-10T11:04:34.572Z,100942.86
2019-06-10T11:07:03.408Z,100941.36
2019-06-10T11:09:33.095Z,100939.13
2019-06-10T11:12:03.459Z,100929.89
2019-06-10T11:14:34.097Z,100938.33
2019-06-10T11:17:03.179Z,100947.81
2019-06-10T11:19:33.050Z,100936.47
2019-06-10T11:22:03.148Z,100931.27
2019-06-10T11:24:37.679Z,100924.63
2019-06-10T11:27:03.330Z,100912.98
2019-06-10T11:29:32.889Z,100928.17
2019-06-10T11:32:03.068Z,100915.05
2019-06-10T11:34:33.361Z,100915.27
2019-06-10T11:37:02.466Z,100898.80
2019-06-10T11:39:33.834Z,100909.52
2019-06-10T11:42:04.003Z,100909.75
2019-06-10T11:44:33.931Z,100911.92
2019-06-10T11:47:03.285Z,100913.80
2019-06-10T11:49:32.628Z,100909.16
2019-06-10T11:52:03.232Z,100902.04
2019-06-10T11:54:47.858Z,100904.57
2019-06-10T11:57:20.042Z,100898.45
2019-06-10T11:59:36.490Z,100891.85
2019-06-10T12:02:06.185Z,100895.34
2019-06-10T12:04:35.167Z,100893.25
2019-06-10T12:07:03.940Z,100892.25
2019-06-10T12:09:33.393Z,100879.44
2019-06-10T12:12:02.909Z,100875.88
2019-06-10T12:14:33.118Z,100875.61
2019-06-10T12:17:21.797Z,100870.08
2019-06-10T12:19:34.071Z,100873.55
2019-06-10T12:22:07.136Z,100872.86
2019-06-10T12:24:34.248Z,100872.59
2019-06-10T12:27:05.045Z,100863.52
2019-06-10T12:29:34.949Z,100863.97
2019-06-10T12:32:07.355Z,100854.77
2019-06-10T12:34:34.549Z,100857.87
2019-06-10T12:37:10.728Z,100849.58
2019-06-10T12:39:35.085Z,100850.86
2019-06-10T12:42:06.401Z,100841.95
2019-06-10T12:44:34.925Z,100843.59
2019-06-10T12:47:06.362Z,100844.27
2019-06-10T12:49:34.198Z,100845.92
2019-06-10T12:52:07.178Z,100841.14
2019-06-10T12:54:33.577Z,100843.41
2019-06-10T12:57:04.755Z,100844.73
2019-06-10T12:59:32.854Z,100847.99
2019-06-10T13:02:14.339Z,100848.78
2019-06-10T13:04:33.134Z,100851.61
2019-06-10T13:07:05.202Z,100846.31
2019-06-10T13:09:32.937Z,100843.57
2019-06-10T13:12:02.162Z,100839.46
2019-06-10T13:14:32.576Z,100833.03
2019-06-10T13:17:02.964Z,100826.06
2019-06-10T13:19:34.347Z,100824.38
2019-06-10T13:22:05.970Z,100814.92
2019-06-10T13:24:33.825Z,100814.16
2019-06-10T13:27:03.867Z,100814.16
2019-06-10T13:29:33.387Z,100814.69
2019-06-10T13:32:04.193Z,100811.02
2019-06-10T13:34:32.912Z,100798.83
2019-06-10T13:37:03.880Z,100797.70
2019-06-10T13:39:33.701Z,100783.43
2019-06-10T13:42:04.997Z,100791.27
2019-06-10T13:44:33.009Z,100788.66
2019-06-10T13:47:05.202Z,100785.31
2019-06-10T13:49:33.156Z,100781.73
2019-06-10T13:52:05.729Z,100780.86
2019-06-10T13:54:32.508Z,100785.78
2019-06-10T13:57:03.673Z,100785.94
2019-06-10T13:59:31.805Z,100779.78
2019-06-10T14:02:03.731Z,100773.64
2019-06-10T14:04:33.434Z,100779.50
2019-06-10T14:07:04.227Z,100778.84
2019-06-10T14:09:32.969Z,100772.05
2019-06-10T14:12:02.095Z,100768.69
2019-06-10T14:14:33.128Z,100756.58
2019-06-10T14:17:01.688Z,100756.58
2019-06-10T14:19:32.481Z,100757.55
2019-06-10T14:22:02.450Z,100750.86
2019-06-10T14:24:33.086Z,100745.80
2019-06-10T14:27:04.161Z,100743.12
2019-06-10T14:29:32.687Z,100733.36
2019-06-10T14:32:03.545Z,100738.62
2019-06-10T14:34:32.604Z,100743.55
2019-06-10T14:37:01.501Z,100740.93
2019-06-10T14:39:32.775Z,100737.98
2019-06-10T14:42:03.329Z,100739.48
2019-06-10T14:44:35.396Z,100738.13
2019-06-10T14:47:06.510Z,100729.06
2019-06-10T14:49:35.511Z,100729.62
2019-06-10T14:52:05.017Z,100710.56
2019-06-10T14:54:33.862Z,100594.42
2019-06-10T14:57:02.828Z,100716.06
2019-06-10T14:59:31.659Z,100714.33
2019-06-10T15:02:02.634Z,100712.30
2019-06-10T15:04:33.148Z,100702.58
2019-06-10T15:07:02.915Z,100704.66
2019-06-10T15:09:33.471Z,100697.64
2019-06-10T15:12:02.932Z,100697.23
2019-06-10T15:14:32.355Z,100687.19
2019-06-10T15:17:02.856Z,100691.44
2019-06-10T15:19:33.230Z,100693.24
2019-06-10T15:22:03.076Z,100687.21
2019-06-10T15:24:33.422Z,100683.78
2019-06-10T15:27:11.956Z,100687.87
2019-06-10T15:29:32.972Z,100690.50
2019-06-10T15:32:10.283Z,100694.25
2019-06-10T15:34:32.633Z,100690.00
2019-06-10T15:37:02.809Z,100680.50
2019-06-10T15:39:33.326Z,100685.06
2019-06-10T15:42:03.061Z,100680.91
2019-06-10T15:44:52.266Z,100689.23
2019-06-10T15:47:03.181Z,100687.98
2019-06-10T15:49:32.925Z,100686.34
2019-06-10T15:52:03.327Z,100681.69
2019-06-10T15:54:33.322Z,100674.14
2019-06-10T15:57:03.268Z,100674.83
2019-06-10T15:59:32.204Z,100671.97
2019-06-10T16:02:02.602Z,100669.00
2019-06-10T16:04:35.122Z,100662.27
2019-06-10T16:07:02.562Z,100654.91
2019-06-10T16:09:32.161Z,100662.65
2019-06-10T16:12:02.925Z,100659.88
2019-06-10T16:14:33.189Z,100655.42
2019-06-10T16:17:03.129Z,100660.03
2019-06-10T16:19:32.899Z,100652.30
2019-06-10T16:22:03.221Z,100647.97
2019-06-10T16:24:33.301Z,100637.17
2019-06-10T16:27:03.373Z,100632.02
2019-06-10T16:29:33.327Z,100638.62
2019-06-10T16:32:02.738Z,100630.56
2019-06-10T16:34:32.538Z,100625.44
2019-06-10T16:37:02.380Z,100623.40
2019-06-10T16:39:32.621Z,100608.30
2019-06-10T16:42:02.969Z,100601.23
2019-06-10T16:44:32.934Z,100589.92
2019-06-10T16:47:03.195Z,100603.27
2019-06-10T16:49:32.815Z,100599.70
2019-06-10T16:52:02.850Z,100589.06
2019-06-10T16:54:32.984Z,100594.27
2019-06-10T16:57:03.794Z,100591.26
2019-06-10T16:59:33.000Z,100592.03
2019-06-10T17:02:02.373Z,100597.77
2019-06-10T17:04:33.200Z,100587.48
2019-06-10T17:07:02.338Z,100577.67
2019-06-10T17:09:32.866Z,100573.72
2019-06-10T17:12:02.341Z,100577.28
2019-06-10T17:14:33.571Z,100589.06
2019-06-10T17:17:03.521Z,100594.67
2019-06-10T17:19:33.389Z,100580.09
2019-06-10T17:22:02.474Z,100581.14
2019-06-10T17:24:33.745Z,100580.78
2019-06-10T17:27:02.774Z,100594.31
2019-06-10T17:29:33.509Z,100609.73
2019-06-10T17:32:03.017Z,100614.91
2019-06-10T17:34:33.850Z,100616.65
2019-06-10T17:37:03.100Z,100620.31
2019-06-10T17:39:34.629Z,100626.91
2019-06-10T17:42:02.674Z,100620.97
2019-06-10T17:44:36.642Z,100616.30
2019-06-10T17:47:05.563Z,100609.20
2019-06-10T17:49:34.928Z,100610.47
2019-06-10T17:52:04.103Z,100619.23
2019-06-10T17:54:32.869Z,100625.20
2019-06-10T17:57:02.422Z,100630.84
2019-06-10T17:59:34.106Z,100622.47
2019-06-10T18:02:02.985Z,100623.09
2019-06-10T18:04:31.951Z,100623.02
2019-06-10T18:07:02.291Z,100613.09
2019-06-10T18:09:36.560Z,100611.98
2019-06-10T18:12:04.380Z,100611.98
2019-06-10T18:14:36.215Z,100607.79
2019-06-10T18:17:06.559Z,100603.60
2019-06-10T18:19:37.480Z,100608.08
2019-06-10T18:22:06.408Z,100601.70
2019-06-10T18:24:35.143Z,100596.45
2019-06-10T18:27:05.159Z,100592.56
2019-06-10T18:29:35.770Z,100511.26
2019-06-10T18:32:05.320Z,100598.67
2019-06-10T18:34:37.818Z,100603.20
2019-06-10T18:37:06.418Z,100599.39
2019-06-10T18:39:37.139Z,100608.95
2019-06-10T18:42:05.982Z,100646.31
2019-06-10T18:44:37.065Z,100668.03
2019-06-10T18:47:05.322Z,100683.17
2019-06-10T18:49:35.902Z,100672.91
2019-06-10T18:52:12.523Z,100694.67
2019-06-10T18:55:12.138Z,100694.67
